createdAt,value
2022-09-03T00:01:06.890Z,17.36
2022-09-03T00:04:11.817Z,17.46
2022-09-03T00:06:48.837Z,17.40
2022-09-03T00:09:31.290Z,17.40
2022-09-03T00:12:13.926Z,17.34
2022-09-03T00:14:53.091Z,17.33
2022-09-03T00:17:24.342Z,17.32
2022-09-03T00:19:58.850Z,17.27
2022-09-03T00:22:32.023Z,17.24
2022-09-03T00:25:03.076Z,17.20
2022-09-03T00:27:36.478Z,17.13
2022-09-03T00:30:05.623Z,17.11
2022-09-03T00:32:47.364Z,17.06
2022-09-03T00:35:35.825Z,16.99
2022-09-03T00:38:02.407Z,16.97
2022-09-03T00:40:28.831Z,16.94
2022-09-03T00:43:08.018Z,16.86
2022-09-03T00:45:57.540Z,16.84
2022-09-03T00:48:30.414Z,16.78
2022-09-03T00:51:11.883Z,16.73
2022-09-03T00:53:52.133Z,16.71
2022-09-03T00:56:24.654Z,16.68
2022-09-03T00:59:11.696Z,16.63
2022-09-03T01:01:50.160Z,16.62
2022-09-03T01:04:35.747Z,16.56
2022-09-03T01:07:40.156Z,16.51
2022-09-03T01:10:28.610Z,16.36
2022-09-03T01:13:04.586Z,16.40
2022-09-03T01:15:40.387Z,16.41
2022-09-03T01:18:23.764Z,16.40
2022-09-03T01:21:40.588Z,16.37
2022-09-03T01:24:23.685Z,16.34
2022-09-03T01:27:11.138Z,16.29
2022-09-03T01:29:57.337Z,16.27
2022-09-03T01:32:53.226Z,16.24
2022-09-03T01:35:38.727Z,16.22
2022-09-03T01:38:26.309Z,16.18
2022-09-03T01:41:29.755Z,16.14
2022-09-03T01:44:27.759Z,16.01
2022-09-03T01:47:26.691Z,16.05
2022-09-03T01:50:17.597Z,16.02
2022-09-03T01:52:52.244Z,16.00
2022-09-03T01:55:32.172Z,15.95
2022-09-03T01:58:19.141Z,15.77
2022-09-03T02:00:49.657Z,15.91
2022-09-03T02:03:17.436Z,15.73
2022-09-03T02:05:45.872Z,15.82
2022-09-03T02:08:12.382Z,15.79
2022-09-03T02:10:50.922Z,15.77
2022-09-03T02:13:23.291Z,15.74
2022-09-03T02:15:52.884Z,15.73
2022-09-03T02:18:31.558Z,15.69
2022-09-03T02:21:00.500Z,15.70
2022-09-03T02:23:29.412Z,15.71
2022-09-03T02:25:58.588Z,15.72
2022-09-03T02:28:26.487Z,15.46
2022-09-03T02:30:53.247Z,15.75
2022-09-03T02:33:19.956Z,15.74
2022-09-03T02:35:47.779Z,15.82
2022-09-03T02:38:20.469Z,15.82
2022-09-03T02:40:47.044Z,15.84
2022-09-03T02:43:20.216Z,15.87
2022-09-03T02:45:53.887Z,15.92
2022-09-03T02:48:24.472Z,15.93
2022-09-03T02:50:51.643Z,15.97
2022-09-03T02:53:18.145Z,15.93
2022-09-03T02:55:44.994Z,15.98
2022-09-03T02:58:11.774Z,15.89
2022-09-03T03:00:38.794Z,16.03
2022-09-03T03:03:06.526Z,16.04
2022-09-03T03:05:47.260Z,16.04
2022-09-03T03:08:21.506Z,15.93
2022-09-03T03:10:49.502Z,16.09
2022-09-03T03:13:16.484Z,16.09
2022-09-03T03:15:43.266Z,16.13
2022-09-03T03:18:14.092Z,16.14
2022-09-03T03:20:41.780Z,16.13
2022-09-03T03:23:08.805Z,16.15
2022-09-03T03:25:37.510Z,16.19
2022-09-03T03:28:05.212Z,16.21
2022-09-03T03:30:32.514Z,16.11
2022-09-03T03:32:59.477Z,16.24
2022-09-03T03:35:26.022Z,16.01
2022-09-03T03:37:52.599Z,16.20
2022-09-03T03:40:20.269Z,16.26
2022-09-03T03:42:46.786Z,16.30
2022-09-03T03:45:13.379Z,16.29
2022-09-03T03:47:39.857Z,16.30
2022-09-03T03:50:06.874Z,16.35
2022-09-03T03:52:33.384Z,16.32
2022-09-03T03:54:59.910Z,16.36
2022-09-03T03:57:30.493Z,16.36
2022-09-03T03:59:57.030Z,16.37
2022-09-03T04:02:23.769Z,16.38
2022-09-03T04:04:50.416Z,16.38
2022-09-03T04:07:17.256Z,16.38
2022-09-03T04:09:43.757Z,16.37
2022-09-03T04:12:10.255Z,16.35
2022-09-03T04:14:36.800Z,16.20
2022-09-03T04:17:03.600Z,16.31
2022-09-03T04:19:30.444Z,16.29
2022-09-03T04:21:57.223Z,16.27
2022-09-03T04:24:23.986Z,16.23
2022-09-03T04:26:50.853Z,16.07
2022-09-03T04:29:18.333Z,16.17
2022-09-03T04:32:04.911Z,16.12
2022-09-03T04:34:31.505Z,16.10
2022-09-03T04:37:00.621Z,16.06
2022-09-03T04:39:27.258Z,16.02
2022-09-03T04:41:53.837Z,15.98
2022-09-03T04:44:20.913Z,15.94
2022-09-03T04:46:48.224Z,15.90
2022-09-03T04:49:15.122Z,15.85
2022-09-03T04:51:42.250Z,15.82
2022-09-03T04:54:10.259Z,15.76
2022-09-03T04:56:39.047Z,15.72
2022-09-03T04:59:08.680Z,15.66
2022-09-03T05:01:37.435Z,15.64
2022-09-03T05:04:05.031Z,15.62
2022-09-03T05:06:32.280Z,15.57
2022-09-03T05:08:59.665Z,15.51
2022-09-03T05:11:28.358Z,15.49
2022-09-03T05:13:57.453Z,15.42
2022-09-03T05:16:25.372Z,15.41
2022-09-03T05:18:54.132Z,15.38
2022-09-03T05:21:21.585Z,15.33
2022-09-03T05:23:50.694Z,15.31
2022-09-03T05:26:25.329Z,15.24
2022-09-03T05:28:56.373Z,15.24
2022-09-03T05:31:26.370Z,15.25
2022-09-03T05:33:55.550Z,15.12
2022-09-03T05:36:24.103Z,15.18
2022-09-03T05:38:51.366Z,15.10
2022-09-03T05:41:18.950Z,15.18
2022-09-03T05:43:51.905Z,15.18
2022-09-03T05:46:18.485Z,15.17
2022-09-03T05:48:45.568Z,15.15
2022-09-03T05:51:17.404Z,15.12
2022-09-03T05:53:46.713Z,15.18
2022-09-03T05:56:17.781Z,15.21
2022-09-03T05:58:50.404Z,15.14
2022-09-03T06:01:28.955Z,15.24
2022-09-03T06:03:58.969Z,15.28
2022-09-03T06:06:27.177Z,15.28
2022-09-03T06:08:55.682Z,15.31
2022-09-03T06:11:26.618Z,15.40
2022-09-03T06:13:53.498Z,15.29
2022-09-03T06:16:22.502Z,15.45
2022-09-03T06:19:01.858Z,15.53
2022-09-03T06:21:29.369Z,15.47
2022-09-03T06:23:59.743Z,15.66
2022-09-03T06:26:28.750Z,15.71
2022-09-03T06:28:57.104Z,15.76
2022-09-03T06:31:24.522Z,15.80
2022-09-03T06:33:53.032Z,15.62
2022-09-03T06:36:20.580Z,15.92
2022-09-03T06:38:47.785Z,15.96
2022-09-03T06:41:23.811Z,16.02
2022-09-03T06:43:52.233Z,16.07
2022-09-03T06:46:21.695Z,16.13
2022-09-03T06:48:51.740Z,16.22
2022-09-03T06:51:20.775Z,16.28
2022-09-03T06:53:52.727Z,16.31
2022-09-03T06:56:27.110Z,16.41
2022-09-03T06:58:58.553Z,16.35
2022-09-03T07:01:28.276Z,16.57
2022-09-03T07:03:57.213Z,16.64
2022-09-03T07:06:29.441Z,16.71
2022-09-03T07:08:58.037Z,16.77
2022-09-03T07:11:26.962Z,16.87
2022-09-03T07:13:55.794Z,16.89
2022-09-03T07:16:25.208Z,16.99
2022-09-03T07:18:52.566Z,17.05
2022-09-03T07:21:38.089Z,17.04
2022-09-03T07:24:25.067Z,16.98
2022-09-03T07:27:14.945Z,17.17
2022-09-03T07:30:03.409Z,17.07
2022-09-03T07:32:51.751Z,17.20
2022-09-03T07:35:38.958Z,17.23
2022-09-03T07:38:05.667Z,17.29
2022-09-03T07:40:33.049Z,17.22
2022-09-03T07:43:03.423Z,17.27
2022-09-03T07:45:31.310Z,17.46
2022-09-03T07:47:57.959Z,17.56
2022-09-03T07:50:24.984Z,17.62
2022-09-03T07:53:00.954Z,17.77
2022-09-03T07:55:28.171Z,17.86
2022-09-03T07:57:59.446Z,17.99
2022-09-03T08:00:26.287Z,18.22
2022-09-03T08:02:56.600Z,18.31
2022-09-03T08:05:23.076Z,18.66
2022-09-03T08:07:49.633Z,18.91
2022-09-03T08:10:16.567Z,19.03
2022-09-03T08:12:43.108Z,19.14
2022-09-03T08:15:09.800Z,19.29
2022-09-03T08:17:36.319Z,19.47
2022-09-03T08:20:04.446Z,19.53
2022-09-03T08:22:30.957Z,19.65
2022-09-03T08:24:57.501Z,19.66
2022-09-03T08:27:25.409Z,19.76
2022-09-03T08:29:51.942Z,19.74
2022-09-03T08:32:20.972Z,19.95
2022-09-03T08:34:47.456Z,20.08
2022-09-03T08:37:13.953Z,20.25
2022-09-03T08:39:40.541Z,20.17
2022-09-03T08:42:33.117Z,20.52
2022-09-03T08:45:02.820Z,20.64
2022-09-03T08:47:37.473Z,20.76
2022-09-03T08:50:24.808Z,20.69
2022-09-03T08:52:57.709Z,20.99
2022-09-03T08:55:27.204Z,21.16
2022-09-03T08:58:14.300Z,21.29
2022-09-03T09:00:47.778Z,21.48
2022-09-03T09:03:34.787Z,21.63
2022-09-03T09:06:30.237Z,21.78
2022-09-03T09:09:18.654Z,21.90
2022-09-03T09:11:55.694Z,22.04
2022-09-03T09:14:39.370Z,22.01
2022-09-03T09:17:31.288Z,22.35
2022-09-03T09:20:15.806Z,22.57
2022-09-03T09:25:19.014Z,22.81
2022-09-03T09:28:00.586Z,22.93
2022-09-03T09:30:29.323Z,23.02
2022-09-03T09:32:56.209Z,23.22
2022-09-03T09:35:23.897Z,23.41
2022-09-03T09:38:09.681Z,23.59
2022-09-03T09:40:44.657Z,23.67
2022-09-03T09:43:16.826Z,23.46
2022-09-03T09:45:46.824Z,23.73
2022-09-03T09:48:34.537Z,23.98
2022-09-03T09:51:25.752Z,24.15
2022-09-03T09:54:14.593Z,24.00
2022-09-03T09:56:44.590Z,24.35
2022-09-03T09:59:13.461Z,24.45
2022-09-03T10:01:42.568Z,24.61
2022-09-03T10:04:33.275Z,24.72
2022-09-03T10:07:32.218Z,25.02
2022-09-03T10:10:18.384Z,24.94
2022-09-03T10:12:51.495Z,25.08
2022-09-03T10:15:17.987Z,25.08
2022-09-03T10:17:47.573Z,25.21
2022-09-03T10:20:27.965Z,25.27
2022-09-03T10:23:05.076Z,25.32
2022-09-03T10:25:52.084Z,25.21
2022-09-03T10:28:18.627Z,25.12
2022-09-03T10:31:09.930Z,25.07
2022-09-03T10:33:49.275Z,24.86
2022-09-03T10:36:21.918Z,25.00
2022-09-03T10:39:00.099Z,25.01
2022-09-03T10:41:55.876Z,25.04
2022-09-03T10:44:35.132Z,25.14
2022-09-03T10:47:18.550Z,25.06
2022-09-03T10:49:54.333Z,25.34
2022-09-03T10:52:27.021Z,25.34
2022-09-03T10:55:15.338Z,25.30
2022-09-03T10:58:00.028Z,25.27
2022-09-03T11:00:30.762Z,25.06
2022-09-03T11:03:15.685Z,25.29
2022-09-03T11:06:06.666Z,25.45
2022-09-03T11:08:55.866Z,25.52
2022-09-03T11:11:36.517Z,25.45
2022-09-03T11:14:11.044Z,25.41
2022-09-03T11:16:46.470Z,25.46
2022-09-03T11:19:19.068Z,25.42
2022-09-03T11:21:48.529Z,25.34
2022-09-03T11:24:26.793Z,25.12
2022-09-03T11:27:08.038Z,25.12
2022-09-03T11:29:40.007Z,24.92
2022-09-03T11:32:17.127Z,24.95
2022-09-03T11:34:51.828Z,25.03
2022-09-03T11:37:21.211Z,25.21
2022-09-03T11:40:08.002Z,25.18
2022-09-03T11:42:41.216Z,25.04
2022-09-03T11:45:26.432Z,24.94
2022-09-03T11:47:54.431Z,24.82
2022-09-03T11:50:30.993Z,24.66
2022-09-03T11:53:15.369Z,24.45
2022-09-03T11:55:54.849Z,24.19
2022-09-03T11:58:24.604Z,23.97
2022-09-03T12:00:54.035Z,23.55
2022-09-03T12:03:27.880Z,23.00
2022-09-03T12:06:21.756Z,22.48
2022-09-03T12:09:14.718Z,21.94
2022-09-03T12:11:59.372Z,21.51
2022-09-03T12:14:39.069Z,21.15
2022-09-03T12:17:32.413Z,20.87
2022-09-03T12:19:59.430Z,20.63
2022-09-03T12:22:29.665Z,20.52
2022-09-03T12:25:07.618Z,20.34
2022-09-03T12:27:40.213Z,20.19
2022-09-03T12:30:16.425Z,20.45
2022-09-03T12:32:43.646Z,20.40
2022-09-03T12:38:18.280Z,20.64
2022-09-03T12:43:49.700Z,20.65
2022-09-03T12:46:17.607Z,20.61
2022-09-03T12:51:52.400Z,20.62
2022-09-03T12:54:22.211Z,20.69
2022-09-03T12:57:00.109Z,20.69
2022-09-03T12:59:31.458Z,20.96
2022-09-03T13:02:03.710Z,21.12
2022-09-03T13:04:34.499Z,21.20
2022-09-03T13:07:11.535Z,21.28
2022-09-03T13:09:41.042Z,21.43
2022-09-03T13:12:07.930Z,21.47
2022-09-03T13:14:47.204Z,21.80
2022-09-03T13:17:19.819Z,22.03
2022-09-03T13:20:00.387Z,22.10
2022-09-03T13:22:57.964Z,22.18
2022-09-03T13:25:36.911Z,22.01
2022-09-03T13:28:43.181Z,21.81
2022-09-03T13:31:28.694Z,22.06
2022-09-03T13:34:03.031Z,22.03
2022-09-03T13:36:37.020Z,22.24
2022-09-03T13:39:29.717Z,22.41
2022-09-03T13:42:06.319Z,22.58
2022-09-03T13:44:52.934Z,22.54
2022-09-03T13:47:25.545Z,22.95
2022-09-03T13:50:22.753Z,23.06
2022-09-03T13:53:04.933Z,23.13
2022-09-03T13:55:31.377Z,23.30
2022-09-03T13:58:10.874Z,23.34
2022-09-03T14:00:46.577Z,23.38
2022-09-03T14:03:32.642Z,23.31
2022-09-03T14:06:14.368Z,23.25
2022-09-03T14:09:02.354Z,23.23
2022-09-03T14:11:52.670Z,23.33
2022-09-03T14:14:40.837Z,23.41
2022-09-03T14:17:39.760Z,23.53
2022-09-03T14:20:13.212Z,23.58
2022-09-03T14:22:51.891Z,23.72
2022-09-03T14:25:21.652Z,23.86
2022-09-03T14:27:50.216Z,23.85
2022-09-03T14:30:16.669Z,23.97
2022-09-03T14:32:49.166Z,23.87
2022-09-03T14:35:51.228Z,23.74
2022-09-03T14:38:34.009Z,23.53
2022-09-03T14:41:33.468Z,23.17
2022-09-03T14:44:38.003Z,23.19
2022-09-03T14:47:38.117Z,23.15
2022-09-03T14:50:13.701Z,23.11
2022-09-03T14:53:09.251Z,23.10
2022-09-03T14:55:47.914Z,23.13
2022-09-03T14:58:35.191Z,23.04
2022-09-03T15:01:06.283Z,23.12
2022-09-03T15:03:53.346Z,22.97
2022-09-03T15:06:32.360Z,23.07
2022-09-03T15:09:22.637Z,23.08
2022-09-03T15:11:55.367Z,22.98
2022-09-03T15:14:35.010Z,23.08
2022-09-03T15:17:43.848Z,23.05
2022-09-03T15:20:25.630Z,23.10
2022-09-03T15:23:43.452Z,23.11
2022-09-03T15:26:47.366Z,23.13
2022-09-03T15:29:40.401Z,23.15
2022-09-03T15:32:43.325Z,23.17
2022-09-03T15:35:47.208Z,23.22
2022-09-03T15:38:43.577Z,23.19
2022-09-03T15:41:48.852Z,23.18
2022-09-03T15:44:19.850Z,23.18
2022-09-03T15:46:52.838Z,23.13
2022-09-03T15:49:44.272Z,23.10
2022-09-03T15:52:27.609Z,23.05
2022-09-03T15:55:26.669Z,22.89
2022-09-03T15:58:08.161Z,23.02
2022-09-03T16:01:00.109Z,23.07
2022-09-03T16:03:59.580Z,23.10
2022-09-03T16:06:48.082Z,23.13
2022-09-03T16:09:50.285Z,23.06
2022-09-03T16:13:06.741Z,23.17
2022-09-03T16:15:41.604Z,23.16
2022-09-03T16:18:12.408Z,23.08
2022-09-03T16:20:45.997Z,22.96
2022-09-03T16:23:15.211Z,22.98
2022-09-03T16:25:51.690Z,22.93
2022-09-03T16:28:28.889Z,22.90
2022-09-03T16:31:30.141Z,22.81
2022-09-03T16:34:21.880Z,22.78
2022-09-03T16:37:12.811Z,22.71
2022-09-03T16:39:55.308Z,22.58
2022-09-03T16:43:05.121Z,22.55
2022-09-03T16:46:06.286Z,22.52
2022-09-03T16:48:58.051Z,22.48
2022-09-03T16:51:52.264Z,22.41
2022-09-03T16:54:44.598Z,22.39
2022-09-03T16:57:25.505Z,22.35
2022-09-03T17:00:15.458Z,22.31
2022-09-03T17:03:04.174Z,22.19
2022-09-03T17:05:59.386Z,22.17
2022-09-03T17:08:25.885Z,22.06
2022-09-03T17:10:56.042Z,21.99
2022-09-03T17:13:37.014Z,21.92
2022-09-03T17:16:09.707Z,21.84
2022-09-03T17:18:57.551Z,21.75
2022-09-03T17:21:46.027Z,21.72
2022-09-03T17:24:33.565Z,21.66
2022-09-03T17:27:15.139Z,21.53
2022-09-03T17:29:43.425Z,21.50
2022-09-03T17:32:22.654Z,21.41
2022-09-03T17:35:13.342Z,21.34
2022-09-03T17:38:05.705Z,21.27
2022-09-03T17:40:55.884Z,21.19
2022-09-03T17:43:47.337Z,21.08
2022-09-03T17:46:36.882Z,20.93
2022-09-03T17:49:08.224Z,20.85
2022-09-03T17:52:19.345Z,20.96
2022-09-03T17:54:51.824Z,20.85
2022-09-03T17:57:31.525Z,20.84
2022-09-03T18:00:04.114Z,20.79
2022-09-03T18:03:24.784Z,20.71
2022-09-03T18:06:01.488Z,20.63
2022-09-03T18:08:43.657Z,20.55
2022-09-03T18:11:33.972Z,20.48
2022-09-03T18:14:19.626Z,20.45
2022-09-03T18:17:07.859Z,20.36
2022-09-03T18:20:14.448Z,20.30
2022-09-03T18:23:05.557Z,20.25
2022-09-03T18:25:54.808Z,20.13
2022-09-03T18:29:06.656Z,20.07
2022-09-03T18:31:51.602Z,20.00
2022-09-03T18:34:48.701Z,19.95
2022-09-03T18:37:40.079Z,19.87
2022-09-03T18:40:28.046Z,19.83
2022-09-03T18:43:32.662Z,19.75
2022-09-03T18:49:57.121Z,19.59
2022-09-03T18:52:47.994Z,19.53
2022-09-03T18:56:04.150Z,19.43
2022-09-03T18:59:15.536Z,19.22
2022-09-03T19:02:01.733Z,19.30
2022-09-03T19:05:11.634Z,19.25
2022-09-03T19:08:12.783Z,19.17
2022-09-03T19:11:29.114Z,19.12
2022-09-03T19:14:18.638Z,19.06
2022-09-03T19:17:20.311Z,19.04
2022-09-03T19:20:46.365Z,19.00
2022-09-03T19:23:31.617Z,18.94
2022-09-03T19:26:47.218Z,18.89
2022-09-03T19:29:47.307Z,18.83
2022-09-03T19:32:43.235Z,18.79
2022-09-03T19:35:38.262Z,18.74
2022-09-03T19:38:50.781Z,18.71
2022-09-03T19:41:50.466Z,18.69
2022-09-03T19:45:01.034Z,18.54
2022-09-03T19:47:54.027Z,18.59
2022-09-03T19:50:42.834Z,18.57
2022-09-03T19:53:32.177Z,18.53
2022-09-03T19:56:21.099Z,18.49
2022-09-03T19:59:18.893Z,18.43
2022-09-03T20:02:05.854Z,18.34
2022-09-03T20:04:53.215Z,18.42
2022-09-03T20:07:39.518Z,18.34
2022-09-03T20:10:23.620Z,18.33
2022-09-03T20:13:17.140Z,18.30
2022-09-03T20:15:58.871Z,18.27
2022-09-03T20:18:35.111Z,18.14
2022-09-03T20:21:04.492Z,18.24
2022-09-03T20:23:41.873Z,18.21
2022-09-03T20:26:20.073Z,18.15
2022-09-03T20:29:10.723Z,18.15
2022-09-03T20:31:53.619Z,17.94
2022-09-03T20:34:34.619Z,18.04
2022-09-03T20:37:18.967Z,18.06
2022-09-03T20:40:04.938Z,17.85
2022-09-03T20:42:37.540Z,17.99
2022-09-03T20:45:10.163Z,17.94
2022-09-03T20:47:42.521Z,17.91
2022-09-03T20:50:18.631Z,17.88
2022-09-03T20:53:01.997Z,17.82
2022-09-03T20:55:33.711Z,17.75
2022-09-03T20:58:14.809Z,17.71
2022-09-03T21:00:57.910Z,17.70
2022-09-03T21:03:30.743Z,17.63
2022-09-03T21:06:15.947Z,17.68
2022-09-03T21:09:05.113Z,17.62
2022-09-03T21:12:06.904Z,17.61
2022-09-03T21:14:41.849Z,17.58
2022-09-03T21:17:27.900Z,17.48
2022-09-03T21:20:10.901Z,17.37
2022-09-03T21:22:52.737Z,17.46
2022-09-03T21:25:32.924Z,17.28
2022-09-03T21:28:06.501Z,17.36
2022-09-03T21:30:40.627Z,17.30
2022-09-03T21:33:19.797Z,17.05
2022-09-03T21:36:16.584Z,17.25
2022-09-03T21:38:49.095Z,17.21
2022-09-03T21:41:23.654Z,17.19
2022-09-03T21:44:19.069Z,17.13
2022-09-03T21:46:54.509Z,17.11
2022-09-03T21:49:53.451Z,17.09
2022-09-03T21:52:27.504Z,17.08
2022-09-03T21:54:54.050Z,17.03
2022-09-03T21:57:31.207Z,17.00
2022-09-03T22:00:17.761Z,17.02
2022-09-03T22:02:46.556Z,16.99
2022-09-03T22:05:15.051Z,16.91
2022-09-03T22:07:59.992Z,16.98
2022-09-03T22:10:39.422Z,16.91
2022-09-03T22:13:23.436Z,16.95
2022-09-03T22:15:51.346Z,16.95
2022-09-03T22:18:29.341Z,16.92
2022-09-03T22:21:13.804Z,16.90
2022-09-03T22:23:55.701Z,16.87
2022-09-03T22:26:32.254Z,16.86
2022-09-03T22:29:02.871Z,16.71
2022-09-03T22:31:47.764Z,16.73
2022-09-03T22:34:33.170Z,16.76
2022-09-03T22:37:06.845Z,16.75
2022-09-03T22:39:36.655Z,16.74
2022-09-03T22:42:44.932Z,16.69
2022-09-03T22:45:51.223Z,16.64
2022-09-03T22:48:23.836Z,16.65
2022-09-03T22:50:58.957Z,16.61
2022-09-03T22:53:55.116Z,16.62
2022-09-03T22:56:22.427Z,16.45
2022-09-03T22:59:15.587Z,16.56
2022-09-03T23:01:52.627Z,16.55
2022-09-03T23:04:29.962Z,16.45
2022-09-03T23:07:11.606Z,16.54
2022-09-03T23:09:41.826Z,16.51
2022-09-03T23:12:15.379Z,16.50
2022-09-03T23:15:06.456Z,16.47
2022-09-03T23:17:40.572Z,16.49
2022-09-03T23:20:24.130Z,16.47
2022-09-03T23:22:59.679Z,16.19
2022-09-03T23:25:37.593Z,16.38
2022-09-03T23:28:15.118Z,16.40
2022-09-03T23:30:41.776Z,16.37
2022-09-03T23:33:11.110Z,16.38
2022-09-03T23:35:56.590Z,16.26
2022-09-03T23:38:46.795Z,16.13
2022-09-03T23:41:25.725Z,16.29
2022-09-03T23:44:13.341Z,16.35
2022-09-03T23:47:18.853Z,16.35
2022-09-03T23:50:18.106Z,16.23
2022-09-03T23:53:00.369Z,16.33
2022-09-03T23:55:43.394Z,16.36
2022-09-03T23:58:32.738Z,16.24
